createdAt,value
2018-01-02T00:00:21.512Z,30.3
2018-01-02T00:01:22.251Z,31.4
2018-01-02T00:02:22.990Z,32.1
2018-01-02T00:03:23.787Z,36.6
2018-01-02T00:04:24.594Z,36.7
2018-01-02T00:05:25.413Z,42.5
2018-01-02T00:06:26.209Z,46.6
2018-01-02T00:07:26.999Z,40.5
2018-01-02T00:08:27.822Z,30.5
2018-01-02T00:09:28.654Z,33.2
2018-01-02T00:10:29.399Z,36.5
2018-01-02T00:11:30.156Z,34.4
2018-01-02T00:12:30.927Z,36.8
2018-01-02T00:13:31.647Z,31.6
2018-01-02T00:14:32.418Z,35.2
2018-01-02T00:15:33.134Z,30.4
2018-01-02T00:16:33.968Z,35.4
2018-01-02T00:17:34.693Z,35.4
2018-01-02T00:18:35.434Z,22.7
2018-01-02T00:19:36.306Z,26.5
2018-01-02T00:20:37.076Z,26.0
2018-01-02T00:21:37.822Z,20.9
2018-01-02T00:22:38.615Z,19.1
2018-01-02T00:23:39.302Z,16.6
2018-01-02T00:24:40.155Z,18.2
2018-01-02T00:25:40.954Z,23.8
2018-01-02T00:26:41.695Z,22.2
2018-01-02T00:27:42.418Z,17.8
2018-01-02T00:28:43.247Z,15.1
2018-01-02T00:29:44.064Z,13.7
2018-01-02T00:30:44.887Z,14.4
2018-01-02T00:31:45.739Z,16.2
2018-01-02T00:32:46.524Z,17.8
2018-01-02T00:33:47.279Z,17.2
2018-01-02T00:34:48.065Z,18.8
2018-01-02T00:35:48.880Z,19.7
2018-01-02T00:36:49.745Z,16.7
2018-01-02T00:37:50.521Z,16.2
2018-01-02T00:38:51.347Z,16.1
2018-01-02T00:39:52.147Z,13.4
2018-01-02T00:40:52.936Z,13.6
2018-01-02T00:41:53.731Z,16.3
2018-01-02T00:42:54.457Z,13.5
2018-01-02T00:43:55.313Z,13.6
2018-01-02T00:44:56.040Z,14.3
2018-01-02T00:45:56.874Z,10.8
2018-01-02T00:46:57.724Z,17.3
2018-01-02T00:47:58.456Z,17.4
2018-01-02T00:48:59.302Z,13.9
2018-01-02T00:50:00.034Z,16.7
2018-01-02T00:51:00.822Z,16.4
2018-01-02T00:52:01.572Z,14.4
2018-01-02T00:53:02.372Z,13.5
2018-01-02T00:54:03.121Z,14.0
2018-01-02T00:55:03.950Z,18.1
2018-01-02T00:56:04.771Z,17.8
2018-01-02T00:57:05.579Z,17.1
2018-01-02T00:58:06.354Z,18.9
2018-01-02T00:59:07.147Z,20.4
2018-01-02T01:00:07.970Z,16.2
2018-01-02T01:01:08.772Z,14.4
2018-01-02T01:02:09.556Z,13.8
2018-01-02T01:03:10.370Z,14.9
2018-01-02T01:04:11.174Z,14.0
2018-01-02T01:05:11.942Z,15.4
2018-01-02T01:06:12.758Z,18.6
2018-01-02T01:07:13.634Z,14.9
2018-01-02T01:08:14.427Z,9.7
2018-01-02T01:09:15.234Z,16.7
2018-01-02T01:10:16.005Z,16.2
2018-01-02T01:11:16.745Z,14.7
2018-01-02T01:12:17.600Z,14.1
2018-01-02T01:13:18.399Z,12.4
2018-01-02T01:14:19.194Z,12.4
2018-01-02T01:15:19.991Z,12.2
2018-01-02T01:16:20.701Z,15.3
2018-01-02T01:17:21.500Z,13.3
2018-01-02T01:18:22.212Z,13.4
2018-01-02T01:19:22.962Z,14.9
2018-01-02T01:20:23.769Z,14.5
2018-01-02T01:21:24.515Z,20.6
2018-01-02T01:22:25.334Z,17.4
2018-01-02T01:23:26.161Z,14.7
2018-01-02T01:24:26.917Z,16.2
2018-01-02T01:25:27.628Z,14.9
2018-01-02T01:26:28.471Z,20.9
2018-01-02T01:27:29.298Z,16.3
2018-01-02T01:28:30.057Z,14.3
2018-01-02T01:29:30.874Z,13.1
2018-01-02T01:30:31.651Z,11.6
2018-01-02T01:31:32.449Z,15.4
2018-01-02T01:32:33.208Z,12.4
2018-01-02T01:33:34.021Z,10.8
2018-01-02T01:34:34.855Z,10.7
2018-01-02T01:35:35.649Z,10.4
2018-01-02T01:36:36.478Z,10.8
2018-01-02T01:37:37.237Z,9.5
2018-01-02T01:38:38.010Z,9.9
2018-01-02T01:39:38.822Z,12.4
2018-01-02T01:40:39.557Z,12.3
2018-01-02T01:41:40.283Z,9.1
2018-01-02T01:42:41.029Z,11.2
2018-01-02T01:43:41.817Z,13.1
2018-01-02T01:44:42.551Z,11.4
2018-01-02T01:45:43.346Z,11.1
2018-01-02T01:46:44.130Z,10.4
2018-01-02T01:47:44.919Z,14.0
2018-01-02T01:48:45.659Z,16.4
2018-01-02T01:49:46.516Z,11.6
2018-01-02T01:50:47.222Z,15.9
2018-01-02T01:51:47.972Z,13.3
2018-01-02T01:52:48.812Z,17.3
2018-01-02T01:53:49.614Z,18.8
2018-01-02T01:54:50.397Z,16.0
2018-01-02T01:55:51.201Z,15.0
2018-01-02T01:56:52.004Z,16.0
2018-01-02T01:57:52.737Z,17.2
2018-01-02T01:58:53.540Z,18.2
2018-01-02T01:59:54.337Z,14.0
2018-01-02T02:00:55.107Z,17.9
2018-01-02T02:01:55.834Z,17.5
2018-01-02T02:02:56.612Z,18.6
2018-01-02T02:03:57.333Z,20.7
2018-01-02T02:04:58.107Z,18.5
2018-01-02T02:05:58.932Z,23.0
2018-01-02T02:06:59.718Z,18.2
2018-01-02T02:08:00.571Z,19.5
2018-01-02T02:09:01.286Z,17.5
2018-01-02T02:10:02.026Z,17.6
2018-01-02T02:11:02.798Z,31.5
2018-01-02T02:12:03.625Z,24.8
2018-01-02T02:13:04.457Z,31.4
2018-01-02T02:14:05.181Z,27.5
2018-01-02T02:15:05.996Z,23.7
2018-01-02T02:16:06.717Z,26.8
2018-01-02T02:17:07.513Z,28.6
2018-01-02T02:18:08.399Z,23.8
2018-01-02T02:19:09.192Z,31.7
2018-01-02T02:20:09.988Z,30.9
2018-01-02T02:21:10.831Z,29.6
2018-01-02T02:22:11.609Z,29.8
2018-01-02T02:23:12.297Z,34.2
2018-01-02T02:24:13.011Z,39.8
2018-01-02T02:25:13.802Z,25.8
2018-01-02T02:26:14.686Z,28.5
2018-01-02T02:27:15.432Z,31.6
2018-01-02T02:28:16.240Z,28.9
2018-01-02T02:29:17.050Z,36.1
2018-01-02T02:30:17.851Z,35.6
2018-01-02T02:31:18.699Z,34.4
2018-01-02T02:32:19.533Z,32.8
2018-01-02T02:33:20.267Z,40.4
2018-01-02T02:34:21.056Z,35.7
2018-01-02T02:35:21.840Z,33.0
2018-01-02T02:36:22.683Z,34.9
2018-01-02T02:37:23.460Z,39.8
2018-01-02T02:38:24.251Z,35.3
2018-01-02T02:39:25.053Z,36.5
2018-01-02T02:40:25.907Z,38.1
2018-01-02T02:41:26.691Z,45.5
2018-01-02T02:42:27.413Z,44.5
2018-01-02T02:43:28.213Z,42.4
2018-01-02T02:44:28.997Z,50.2
2018-01-02T02:45:29.847Z,42.0
2018-01-02T02:46:30.634Z,50.5
2018-01-02T02:47:31.351Z,52.2
2018-01-02T02:48:32.172Z,48.2
2018-01-02T02:49:32.954Z,50.7
2018-01-02T02:50:33.677Z,48.7
2018-01-02T02:51:34.469Z,52.7
2018-01-02T02:52:35.203Z,59.4
2018-01-02T02:53:36.009Z,58.0
2018-01-02T02:54:36.721Z,65.3
2018-01-02T02:55:37.501Z,66.9
2018-01-02T02:56:39.352Z,61.3
2018-01-02T02:57:40.305Z,62.2
2018-01-02T02:58:41.034Z,57.4
2018-01-02T02:59:41.762Z,63.4
2018-01-02T03:00:42.546Z,66.5
2018-01-02T03:01:43.336Z,68.0
2018-01-02T03:02:44.065Z,65.8
2018-01-02T03:03:44.793Z,67.9
2018-01-02T03:04:45.592Z,67.5
2018-01-02T03:05:46.455Z,72.3
2018-01-02T03:06:47.189Z,64.2
2018-01-02T03:07:47.952Z,65.4
2018-01-02T03:08:48.785Z,70.1
2018-01-02T03:09:49.517Z,68.6
2018-01-02T03:10:50.246Z,70.5
2018-01-02T03:11:51.088Z,80.4
2018-01-02T03:12:51.891Z,65.3
2018-01-02T03:13:52.620Z,70.6
2018-01-02T03:14:53.334Z,69.0
2018-01-02T03:15:55.248Z,75.3
2018-01-02T03:18:11.616Z,73.3
2018-01-02T03:19:12.387Z,89.2
2018-01-02T03:20:13.866Z,78.6
2018-01-02T03:21:15.186Z,68.4
2018-01-02T03:22:15.859Z,90.0
2018-01-02T03:23:17.587Z,69.6
2018-01-02T03:24:18.594Z,74.8
2018-01-02T03:25:19.313Z,81.2
2018-01-02T03:26:20.056Z,81.0
2018-01-02T03:27:21.292Z,75.6
2018-01-02T03:28:21.976Z,80.2
2018-01-02T03:29:22.687Z,73.4
2018-01-02T03:30:23.497Z,77.3
2018-01-02T03:31:24.216Z,71.3
2018-01-02T03:32:25.045Z,66.3
2018-01-02T03:33:25.771Z,87.0
2018-01-02T03:34:26.545Z,64.5
2018-01-02T03:35:27.266Z,67.4
2018-01-02T03:36:28.027Z,71.9
2018-01-02T03:37:28.839Z,60.8
2018-01-02T03:38:29.559Z,64.1
2018-01-02T03:39:30.278Z,61.6
2018-01-02T03:40:31.000Z,60.5
2018-01-02T03:41:31.724Z,56.4
2018-01-02T03:42:32.490Z,58.2
2018-01-02T03:43:34.391Z,61.5
2018-01-02T03:44:35.338Z,61.4
2018-01-02T03:45:36.110Z,56.4
2018-01-02T03:46:36.897Z,51.9
2018-01-02T03:47:37.688Z,47.4
2018-01-02T03:48:38.471Z,46.0
2018-01-02T03:49:39.270Z,58.0
2018-01-02T03:50:40.058Z,56.4
2018-01-02T03:51:40.848Z,48.2
2018-01-02T03:52:41.704Z,46.1
2018-01-02T03:53:42.542Z,45.3
2018-01-02T03:54:43.319Z,44.1
2018-01-02T03:55:44.123Z,34.8
2018-01-02T03:56:44.855Z,45.8
2018-01-02T03:57:45.703Z,39.4
2018-01-02T03:58:46.511Z,46.4
2018-01-02T03:59:47.233Z,37.6
2018-01-02T04:00:47.964Z,34.5
2018-01-02T04:01:48.702Z,36.5
2018-01-02T04:02:49.481Z,38.9
2018-01-02T04:03:50.254Z,38.6
2018-01-02T04:04:51.057Z,36.3
2018-01-02T04:05:51.805Z,32.2
2018-01-02T04:06:52.619Z,35.4
2018-01-02T04:07:53.339Z,35.7
2018-01-02T04:08:54.061Z,33.7
2018-01-02T04:09:54.869Z,38.5
2018-01-02T04:10:55.601Z,34.1
2018-01-02T04:11:56.360Z,35.1
2018-01-02T04:12:57.096Z,37.1
2018-01-02T04:13:57.890Z,31.1
2018-01-02T04:14:58.700Z,27.7
2018-01-02T04:15:59.498Z,32.4
2018-01-02T04:17:00.309Z,31.8
2018-01-02T04:18:01.100Z,36.2
2018-01-02T04:19:01.830Z,29.1
2018-01-02T04:20:02.627Z,31.3
2018-01-02T04:21:03.351Z,36.7
2018-01-02T04:22:04.164Z,30.1
2018-01-02T04:23:04.887Z,34.8
2018-01-02T04:24:05.734Z,35.6
2018-01-02T04:25:06.543Z,32.0
2018-01-02T04:26:07.258Z,28.5
2018-01-02T04:27:07.977Z,30.2
2018-01-02T04:28:08.812Z,29.5
2018-01-02T04:29:09.593Z,33.3
2018-01-02T04:30:10.326Z,26.6
2018-01-02T04:31:11.124Z,24.4
2018-01-02T04:32:11.852Z,25.1
2018-01-02T04:33:12.572Z,25.3
2018-01-02T04:34:13.298Z,31.8
2018-01-02T04:35:14.094Z,40.2
2018-01-02T04:36:14.884Z,33.2
2018-01-02T04:37:15.674Z,31.3
2018-01-02T04:38:16.401Z,28.0
2018-01-02T04:39:17.183Z,33.5
2018-01-02T04:40:17.904Z,35.1
2018-01-02T04:41:18.624Z,29.0
2018-01-02T04:42:19.344Z,27.8
2018-01-02T04:43:20.133Z,28.0
2018-01-02T04:44:20.868Z,31.0
2018-01-02T04:45:21.604Z,26.0
2018-01-02T04:46:22.395Z,33.9
2018-01-02T04:47:23.183Z,23.3
2018-01-02T04:48:23.955Z,30.3
2018-01-02T04:49:24.678Z,29.8
2018-01-02T04:50:25.453Z,27.6
2018-01-02T04:51:26.244Z,27.8
2018-01-02T04:52:26.967Z,28.2
2018-01-02T04:53:27.755Z,27.3
2018-01-02T04:54:28.645Z,27.8
2018-01-02T04:55:29.513Z,26.3
2018-01-02T04:56:30.268Z,20.7
2018-01-02T04:57:31.065Z,22.4
2018-01-02T04:58:31.876Z,26.6
2018-01-02T04:59:32.602Z,25.4
2018-01-02T05:00:33.382Z,22.1
2018-01-02T05:01:34.144Z,24.5
2018-01-02T05:02:34.863Z,26.2
2018-01-02T05:03:35.603Z,27.5
2018-01-02T05:04:36.434Z,22.8
2018-01-02T05:05:37.162Z,26.6
2018-01-02T05:06:37.902Z,24.0
2018-01-02T05:07:38.732Z,25.6
2018-01-02T05:08:39.523Z,20.6
2018-01-02T05:09:40.312Z,21.4
2018-01-02T05:10:41.094Z,22.1
2018-01-02T05:11:42.475Z,22.1
2018-01-02T05:28:10.814Z,18.2
2018-01-02T05:30:11.303Z,18.7
2018-01-02T05:31:12.094Z,19.2
2018-01-02T06:04:33.536Z,26.6
2018-01-02T06:36:42.430Z,27.8
2018-01-02T06:41:42.072Z,32.8
2018-01-02T06:47:10.540Z,26.1
2018-01-02T06:50:14.699Z,32.2
2018-01-02T07:02:13.002Z,32.9
2018-01-02T07:03:14.471Z,33.6
2018-01-02T07:04:15.292Z,34.7
2018-01-02T07:12:33.933Z,31.3
2018-01-02T07:26:15.582Z,27.6
2018-01-02T07:46:20.662Z,27.5
2018-01-02T07:53:31.250Z,32.7
2018-01-02T07:54:32.030Z,31.8
2018-01-02T08:39:29.068Z,27.7
2018-01-02T08:49:07.149Z,28.2
2018-01-02T08:50:07.918Z,31.8
2018-01-02T08:55:28.961Z,34.0
2018-01-02T09:11:32.833Z,22.1
2018-01-02T09:12:33.622Z,23.2
2018-01-02T09:24:03.762Z,37.5
2018-01-02T09:25:57.352Z,33.7
2018-01-02T09:36:27.147Z,32.0
2018-01-02T09:56:10.210Z,39.8
2018-01-02T10:01:19.062Z,35.5
2018-01-02T10:04:31.324Z,30.3
2018-01-02T10:05:32.235Z,26.4
2018-01-02T10:23:32.562Z,24.6
2018-01-02T10:27:32.493Z,20.4
2018-01-02T10:30:28.651Z,18.7
2018-01-02T10:40:03.963Z,30.1
2018-01-02T11:22:37.410Z,28.9
2018-01-02T11:27:21.440Z,30.5
2018-01-02T11:30:49.691Z,25.5
2018-01-02T11:31:50.510Z,27.0
2018-01-02T11:34:59.876Z,22.1
2018-01-02T11:36:00.779Z,19.3
2018-01-02T12:25:02.432Z,14.6
2018-01-02T12:37:43.187Z,7.7
2018-01-02T12:46:37.297Z,6.3
2018-01-02T13:02:16.101Z,7.3
2018-01-02T13:12:08.296Z,17.4
2018-01-02T13:22:24.083Z,17.2
2018-01-02T13:24:56.555Z,10.4
2018-01-02T13:38:48.181Z,8.1
2018-01-02T13:50:12.923Z,12.7
2018-01-02T13:59:05.612Z,9.3
2018-01-02T14:00:06.416Z,14.9
2018-01-02T14:15:51.578Z,12.8
2018-01-02T14:27:27.226Z,9.4
2018-01-02T14:44:44.218Z,9.6
2018-01-02T14:54:12.969Z,11.8
2018-01-02T14:56:45.596Z,12.6
2018-01-02T15:02:48.882Z,8.7
2018-01-02T15:03:50.710Z,18.7
2018-01-02T15:04:51.902Z,31.8
2018-01-02T15:22:42.457Z,14.6
2018-01-02T15:40:30.073Z,15.5
2018-01-02T15:49:09.533Z,16.9
2018-01-02T15:59:01.196Z,13.6
2018-01-02T16:26:48.672Z,19.8
2018-01-02T16:35:34.601Z,22.5
2018-01-02T16:51:59.652Z,21.4
2018-01-02T16:53:00.431Z,26.5
2018-01-02T16:54:02.219Z,24.2
2018-01-02T17:08:54.651Z,26.2
2018-01-02T17:09:55.642Z,25.0
2018-01-02T17:10:56.492Z,22.0
2018-01-02T17:32:18.354Z,24.1
2018-01-02T17:38:09.683Z,19.3
2018-01-02T17:40:06.257Z,17.9
2018-01-02T18:02:16.335Z,9.7
2018-01-02T18:36:04.242Z,12.6
2018-01-02T18:57:24.782Z,10.7
2018-01-02T19:08:17.737Z,10.0
2018-01-02T19:33:33.270Z,7.6
2018-01-02T19:34:34.306Z,8.0
2018-01-02T19:57:43.988Z,8.1
2018-01-02T20:25:40.182Z,7.8
2018-01-02T20:39:04.038Z,7.3
2018-01-02T20:40:05.941Z,6.0
2018-01-02T20:53:39.595Z,6.9
2018-01-02T21:21:16.076Z,22.4
2018-01-02T21:54:56.880Z,14.6
2018-01-02T22:09:24.905Z,10.0
2018-01-02T22:17:57.205Z,12.4
2018-01-02T22:24:14.868Z,13.6
2018-01-02T22:57:19.036Z,11.6
2018-01-02T22:59:59.242Z,12.4
2018-01-02T23:34:46.028Z,6.0
